sensor_id;sensor_type;location;lat;lon;timestamp;temperature;humidity
22917;DHT22;11624;53.250;7.456;2023-01-16T00:00:45;10.62;58.24
22917;DHT22;11624;53.250;7.456;2023-01-16T00:03:13;10.51;58.86
22917;DHT22;11624;53.250;7.456;2023-01-16T00:05:42;10.64;58.76
22917;DHT22;11624;53.250;7.456;2023-01-16T00:08:10;10.87;57.93
22917;DHT22;11624;53.250;7.456;2023-01-16T00:10:38;10.83;58.13
22917;DHT22;11624;53.250;7.456;2023-01-16T00:13:08;10.85;58.00
22917;DHT22;11624;53.250;7.456;2023-01-16T00:15:43;10.80;57.63
22917;DHT22;11624;53.250;7.456;2023-01-16T00:18:11;10.80;58.32
22917;DHT22;11624;53.250;7.456;2023-01-16T00:20:40;10.84;58.19
22917;DHT22;11624;53.250;7.456;2023-01-16T00:23:08;11.00;57.83
22917;DHT22;11624;53.250;7.456;2023-01-16T00:25:38;10.87;58.02
22917;DHT22;11624;53.250;7.456;2023-01-16T00:28:07;10.86;58.10
22917;DHT22;11624;53.250;7.456;2023-01-16T00:30:35;10.87;58.06
22917;DHT22;11624;53.250;7.456;2023-01-16T00:33:05;10.92;57.96
22917;DHT22;11624;53.250;7.456;2023-01-16T00:35:34;10.98;57.82
22917;DHT22;11624;53.250;7.456;2023-01-16T00:38:02;10.96;57.84
22917;DHT22;11624;53.250;7.456;2023-01-16T00:40:30;11.04;57.45
22917;DHT22;11624;53.250;7.456;2023-01-16T00:42:58;11.01;57.52
22917;DHT22;11624;53.250;7.456;2023-01-16T00:45:26;11.05;57.43
22917;DHT22;11624;53.250;7.456;2023-01-16T00:47:54;11.00;57.58
22917;DHT22;11624;53.250;7.456;2023-01-16T00:50:24;10.96;57.58
22917;DHT22;11624;53.250;7.456;2023-01-16T00:52:52;10.92;57.70
22917;DHT22;11624;53.250;7.456;2023-01-16T00:55:20;10.92;57.69
22917;DHT22;11624;53.250;7.456;2023-01-16T00:57:48;10.96;57.55
22917;DHT22;11624;53.250;7.456;2023-01-16T01:00:16;10.98;57.39
22917;DHT22;11624;53.250;7.456;2023-01-16T01:02:46;10.95;57.35
22917;DHT22;11624;53.250;7.456;2023-01-16T01:05:14;10.99;57.32
22917;DHT22;11624;53.250;7.456;2023-01-16T01:07:44;10.96;57.33
22917;DHT22;11624;53.250;7.456;2023-01-16T01:10:12;10.86;57.67
22917;DHT22;11624;53.250;7.456;2023-01-16T01:12:40;10.93;57.36
22917;DHT22;11624;53.250;7.456;2023-01-16T01:15:08;10.92;57.35
22917;DHT22;11624;53.250;7.456;2023-01-16T01:17:37;10.84;57.57
22917;DHT22;11624;53.250;7.456;2023-01-16T01:20:07;10.84;57.66
22917;DHT22;11624;53.250;7.456;2023-01-16T01:22:37;10.88;57.43
22917;DHT22;11624;53.250;7.456;2023-01-16T01:25:07;10.96;57.19
22917;DHT22;11624;53.250;7.456;2023-01-16T01:27:36;10.96;57.26
22917;DHT22;11624;53.250;7.456;2023-01-16T01:30:05;10.94;57.32
22917;DHT22;11624;53.250;7.456;2023-01-16T01:32:33;10.79;57.79
22917;DHT22;11624;53.250;7.456;2023-01-16T01:35:05;10.73;57.51
22917;DHT22;11624;53.250;7.456;2023-01-16T01:37:33;10.82;57.64
22917;DHT22;11624;53.250;7.456;2023-01-16T01:40:02;10.80;57.78
22917;DHT22;11624;53.250;7.456;2023-01-16T01:42:37;10.80;57.27
22917;DHT22;11624;53.250;7.456;2023-01-16T01:45:18;10.69;58.03
22917;DHT22;11624;53.250;7.456;2023-01-16T01:47:51;10.67;58.02
22917;DHT22;11624;53.250;7.456;2023-01-16T01:50:30;10.66;58.08
22917;DHT22;11624;53.250;7.456;2023-01-16T01:53:05;10.80;57.71
22917;DHT22;11624;53.250;7.456;2023-01-16T01:55:36;10.62;58.17
22917;DHT22;11624;53.250;7.456;2023-01-16T01:58:07;10.67;58.19
22917;DHT22;11624;53.250;7.456;2023-01-16T02:00:36;10.65;57.95
22917;DHT22;11624;53.250;7.456;2023-01-16T02:03:07;10.64;58.26
22917;DHT22;11624;53.250;7.456;2023-01-16T02:05:40;10.43;58.57
22917;DHT22;11624;53.250;7.456;2023-01-16T02:08:13;10.58;58.29
22917;DHT22;11624;53.250;7.456;2023-01-16T02:10:44;10.73;57.59
22917;DHT22;11624;53.250;7.456;2023-01-16T02:13:14;10.80;57.64
22917;DHT22;11624;53.250;7.456;2023-01-16T02:15:43;10.82;57.52
22917;DHT22;11624;53.250;7.456;2023-01-16T02:18:25;10.52;58.03
22917;DHT22;11624;53.250;7.456;2023-01-16T02:21:19;10.72;57.54
22917;DHT22;11624;53.250;7.456;2023-01-16T02:24:26;10.77;57.32
22917;DHT22;11624;53.250;7.456;2023-01-16T02:27:12;10.68;57.78
22917;DHT22;11624;53.250;7.456;2023-01-16T02:30:08;10.66;57.74
22917;DHT22;11624;53.250;7.456;2023-01-16T02:32:52;10.66;57.69
22917;DHT22;11624;53.250;7.456;2023-01-16T02:35:49;10.57;58.03
22917;DHT22;11624;53.250;7.456;2023-01-16T02:38:23;10.59;58.06
22917;DHT22;11624;53.250;7.456;2023-01-16T02:40:59;10.60;57.80
22917;DHT22;11624;53.250;7.456;2023-01-16T02:43:34;10.56;58.19
22917;DHT22;11624;53.250;7.456;2023-01-16T02:46:10;10.51;58.35
22917;DHT22;11624;53.250;7.456;2023-01-16T02:48:47;10.25;59.16
22917;DHT22;11624;53.250;7.456;2023-01-16T02:51:24;10.34;59.00
22917;DHT22;11624;53.250;7.456;2023-01-16T02:53:59;10.44;58.84
22917;DHT22;11624;53.250;7.456;2023-01-16T02:56:34;10.41;58.96
22917;DHT22;11624;53.250;7.456;2023-01-16T02:59:05;10.63;58.40
22917;DHT22;11624;53.250;7.456;2023-01-16T03:01:34;10.63;58.43
22917;DHT22;11624;53.250;7.456;2023-01-16T03:04:43;10.56;58.28
22917;DHT22;11624;53.250;7.456;2023-01-16T03:07:28;10.45;58.48
22917;DHT22;11624;53.250;7.456;2023-01-16T03:10:07;10.56;58.29
22917;DHT22;11624;53.250;7.456;2023-01-16T03:12:44;10.56;58.29
22917;DHT22;11624;53.250;7.456;2023-01-16T03:15:22;10.55;58.30
22917;DHT22;11624;53.250;7.456;2023-01-16T03:17:58;10.63;58.09
22917;DHT22;11624;53.250;7.456;2023-01-16T03:20:39;10.66;57.84
22917;DHT22;11624;53.250;7.456;2023-01-16T03:23:16;10.73;57.62
22917;DHT22;11624;53.250;7.456;2023-01-16T03:25:52;10.66;57.84
22917;DHT22;11624;53.250;7.456;2023-01-16T03:28:29;10.68;57.88
22917;DHT22;11624;53.250;7.456;2023-01-16T03:31:06;10.75;57.63
22917;DHT22;11624;53.250;7.456;2023-01-16T03:33:42;10.60;58.18
22917;DHT22;11624;53.250;7.456;2023-01-16T03:36:15;10.62;58.15
22917;DHT22;11624;53.250;7.456;2023-01-16T03:38:48;10.65;58.00
22917;DHT22;11624;53.250;7.456;2023-01-16T03:41:21;10.57;58.22
22917;DHT22;11624;53.250;7.456;2023-01-16T03:43:57;10.48;58.35
22917;DHT22;11624;53.250;7.456;2023-01-16T03:46:28;10.55;58.29
22917;DHT22;11624;53.250;7.456;2023-01-16T03:49:01;10.55;58.12
22917;DHT22;11624;53.250;7.456;2023-01-16T03:51:34;10.44;58.52
22917;DHT22;11624;53.250;7.456;2023-01-16T03:54:06;10.48;58.47
22917;DHT22;11624;53.250;7.456;2023-01-16T03:56:43;10.35;58.80
22917;DHT22;11624;53.250;7.456;2023-01-16T03:59:14;10.37;59.04
22917;DHT22;11624;53.250;7.456;2023-01-16T04:01:49;10.28;59.17
22917;DHT22;11624;53.250;7.456;2023-01-16T04:04:24;10.51;58.32
22917;DHT22;11624;53.250;7.456;2023-01-16T04:06:59;10.53;58.27
22917;DHT22;11624;53.250;7.456;2023-01-16T04:09:33;10.57;58.19
22917;DHT22;11624;53.250;7.456;2023-01-16T04:12:03;10.62;58.27
22917;DHT22;11624;53.250;7.456;2023-01-16T04:14:33;10.70;58.13
22917;DHT22;11624;53.250;7.456;2023-01-16T04:17:03;10.66;58.28
22917;DHT22;11624;53.250;7.456;2023-01-16T04:19:33;10.71;58.13
22917;DHT22;11624;53.250;7.456;2023-01-16T04:22:06;10.72;57.94
22917;DHT22;11624;53.250;7.456;2023-01-16T04:24:35;10.80;58.06
22917;DHT22;11624;53.250;7.456;2023-01-16T04:27:03;10.82;57.98
22917;DHT22;11624;53.250;7.456;2023-01-16T04:29:31;10.81;58.01
22917;DHT22;11624;53.250;7.456;2023-01-16T04:31:59;10.82;58.00
22917;DHT22;11624;53.250;7.456;2023-01-16T04:34:27;10.78;58.01
22917;DHT22;11624;53.250;7.456;2023-01-16T04:36:56;10.68;58.13
22917;DHT22;11624;53.250;7.456;2023-01-16T04:39:25;10.79;58.25
22917;DHT22;11624;53.250;7.456;2023-01-16T04:41:53;10.77;58.32
22917;DHT22;11624;53.250;7.456;2023-01-16T04:44:21;10.64;58.75
22917;DHT22;11624;53.250;7.456;2023-01-16T04:46:49;10.57;59.01
22917;DHT22;11624;53.250;7.456;2023-01-16T04:49:17;10.67;58.86
22917;DHT22;11624;53.250;7.456;2023-01-16T04:51:46;10.74;58.67
22917;DHT22;11624;53.250;7.456;2023-01-16T04:54:15;10.74;58.62
22917;DHT22;11624;53.250;7.456;2023-01-16T04:56:45;10.71;58.67
22917;DHT22;11624;53.250;7.456;2023-01-16T04:59:16;10.86;58.35
22917;DHT22;11624;53.250;7.456;2023-01-16T05:01:45;10.84;58.16
22917;DHT22;11624;53.250;7.456;2023-01-16T05:04:14;10.80;58.51
22917;DHT22;11624;53.250;7.456;2023-01-16T05:06:43;10.79;58.64
22917;DHT22;11624;53.250;7.456;2023-01-16T05:09:11;10.71;58.70
22917;DHT22;11624;53.250;7.456;2023-01-16T05:11:39;10.75;58.70
22917;DHT22;11624;53.250;7.456;2023-01-16T05:14:09;10.74;58.64
22917;DHT22;11624;53.250;7.456;2023-01-16T05:16:38;10.77;58.54
22917;DHT22;11624;53.250;7.456;2023-01-16T05:19:09;10.69;58.80
22917;DHT22;11624;53.250;7.456;2023-01-16T05:21:37;10.75;58.75
22917;DHT22;11624;53.250;7.456;2023-01-16T05:24:05;10.75;58.77
22917;DHT22;11624;53.250;7.456;2023-01-16T05:26:34;10.69;58.92
22917;DHT22;11624;53.250;7.456;2023-01-16T05:29:02;10.72;58.83
22917;DHT22;11624;53.250;7.456;2023-01-16T05:31:31;10.77;58.80
22917;DHT22;11624;53.250;7.456;2023-01-16T05:33:59;10.83;58.54
22917;DHT22;11624;53.250;7.456;2023-01-16T05:36:28;10.70;58.87
22917;DHT22;11624;53.250;7.456;2023-01-16T05:38:56;10.72;58.89
22917;DHT22;11624;53.250;7.456;2023-01-16T05:41:24;10.68;58.90
22917;DHT22;11624;53.250;7.456;2023-01-16T05:43:52;10.62;59.10
22917;DHT22;11624;53.250;7.456;2023-01-16T05:46:20;10.68;59.00
22917;DHT22;11624;53.250;7.456;2023-01-16T05:48:49;10.71;58.89
22917;DHT22;11624;53.250;7.456;2023-01-16T05:51:17;10.74;58.81
22917;DHT22;11624;53.250;7.456;2023-01-16T05:53:49;10.81;58.37
22917;DHT22;11624;53.250;7.456;2023-01-16T05:56:20;10.74;58.64
22917;DHT22;11624;53.250;7.456;2023-01-16T05:58:49;10.79;58.65
22917;DHT22;11624;53.250;7.456;2023-01-16T06:01:17;10.75;58.70
22917;DHT22;11624;53.250;7.456;2023-01-16T06:03:45;10.71;58.83
22917;DHT22;11624;53.250;7.456;2023-01-16T06:06:14;10.74;58.58
22917;DHT22;11624;53.250;7.456;2023-01-16T06:08:45;10.74;58.68
22917;DHT22;11624;53.250;7.456;2023-01-16T06:11:13;10.85;58.20
22917;DHT22;11624;53.250;7.456;2023-01-16T06:13:41;10.92;58.00
22917;DHT22;11624;53.250;7.456;2023-01-16T06:16:09;10.78;58.41
22917;DHT22;11624;53.250;7.456;2023-01-16T06:18:38;11.00;57.67
22917;DHT22;11624;53.250;7.456;2023-01-16T06:21:06;10.78;58.23
22917;DHT22;11624;53.250;7.456;2023-01-16T06:23:35;10.71;58.32
22917;DHT22;11624;53.250;7.456;2023-01-16T06:26:03;10.72;58.19
22917;DHT22;11624;53.250;7.456;2023-01-16T06:28:32;10.69;58.15
22917;DHT22;11624;53.250;7.456;2023-01-16T06:31:00;10.71;57.84
22917;DHT22;11624;53.250;7.456;2023-01-16T06:33:28;10.68;57.72
22917;DHT22;11624;53.250;7.456;2023-01-16T06:35:56;10.64;57.73
22917;DHT22;11624;53.250;7.456;2023-01-16T06:38:25;10.53;58.11
22917;DHT22;11624;53.250;7.456;2023-01-16T06:40:54;10.40;58.62
22917;DHT22;11624;53.250;7.456;2023-01-16T06:43:23;10.38;58.76
22917;DHT22;11624;53.250;7.456;2023-01-16T06:45:51;10.37;58.75
22917;DHT22;11624;53.250;7.456;2023-01-16T06:48:19;10.44;58.48
22917;DHT22;11624;53.250;7.456;2023-01-16T06:50:48;10.42;58.56
22917;DHT22;11624;53.250;7.456;2023-01-16T06:53:16;10.37;58.64
22917;DHT22;11624;53.250;7.456;2023-01-16T06:55:44;10.33;58.69
22917;DHT22;11624;53.250;7.456;2023-01-16T06:58:13;10.34;58.77
22917;DHT22;11624;53.250;7.456;2023-01-16T07:00:41;10.36;58.67
22917;DHT22;11624;53.250;7.456;2023-01-16T07:03:10;10.30;58.54
22917;DHT22;11624;53.250;7.456;2023-01-16T07:05:39;10.24;58.87
22917;DHT22;11624;53.250;7.456;2023-01-16T07:08:07;10.22;58.80
22917;DHT22;11624;53.250;7.456;2023-01-16T07:10:35;10.23;58.90
22917;DHT22;11624;53.250;7.456;2023-01-16T07:13:03;10.22;58.93
22917;DHT22;11624;53.250;7.456;2023-01-16T07:15:33;10.28;58.74
22917;DHT22;11624;53.250;7.456;2023-01-16T07:18:18;10.20;58.95
22917;DHT22;11624;53.250;7.456;2023-01-16T07:21:05;10.15;58.94
22917;DHT22;11624;53.250;7.456;2023-01-16T07:23:58;9.95;59.48
22917;DHT22;11624;53.250;7.456;2023-01-16T07:26:27;9.97;59.34
22917;DHT22;11624;53.250;7.456;2023-01-16T07:28:56;9.99;59.22
22917;DHT22;11624;53.250;7.456;2023-01-16T07:31:26;9.91;59.64
22917;DHT22;11624;53.250;7.456;2023-01-16T07:33:54;9.88;59.84
22917;DHT22;11624;53.250;7.456;2023-01-16T07:36:22;9.91;59.91
22917;DHT22;11624;53.250;7.456;2023-01-16T07:38:50;9.98;59.82
22917;DHT22;11624;53.250;7.456;2023-01-16T07:41:18;10.06;59.67
22917;DHT22;11624;53.250;7.456;2023-01-16T07:43:46;10.08;59.38
22917;DHT22;11624;53.250;7.456;2023-01-16T07:46:14;10.04;59.51
22917;DHT22;11624;53.250;7.456;2023-01-16T07:48:44;10.12;59.15
22917;DHT22;11624;53.250;7.456;2023-01-16T07:51:12;10.15;58.91
22917;DHT22;11624;53.250;7.456;2023-01-16T07:53:40;9.89;59.51
22917;DHT22;11624;53.250;7.456;2023-01-16T07:56:08;9.98;59.46
22917;DHT22;11624;53.250;7.456;2023-01-16T07:58:36;9.97;59.62
22917;DHT22;11624;53.250;7.456;2023-01-16T08:01:06;10.07;59.30
22917;DHT22;11624;53.250;7.456;2023-01-16T08:03:34;10.01;59.31
22917;DHT22;11624;53.250;7.456;2023-01-16T08:06:04;9.95;59.67
22917;DHT22;11624;53.250;7.456;2023-01-16T08:08:32;9.98;59.50
22917;DHT22;11624;53.250;7.456;2023-01-16T08:11:00;10.14;58.87
22917;DHT22;11624;53.250;7.456;2023-01-16T08:13:50;10.03;59.14
22917;DHT22;11624;53.250;7.456;2023-01-16T08:16:21;9.96;59.38
22917;DHT22;11624;53.250;7.456;2023-01-16T08:18:49;10.03;59.27
22917;DHT22;11624;53.250;7.456;2023-01-16T08:21:19;10.01;59.30
22917;DHT22;11624;53.250;7.456;2023-01-16T08:23:47;10.07;59.12
22917;DHT22;11624;53.250;7.456;2023-01-16T08:26:15;10.00;59.30
22917;DHT22;11624;53.250;7.456;2023-01-16T08:28:44;9.97;59.52
22917;DHT22;11624;53.250;7.456;2023-01-16T08:31:13;9.98;59.51
22917;DHT22;11624;53.250;7.456;2023-01-16T08:33:43;9.99;59.46
22917;DHT22;11624;53.250;7.456;2023-01-16T08:36:13;9.72;60.09
22917;DHT22;11624;53.250;7.456;2023-01-16T08:38:44;9.65;60.70
22917;DHT22;11624;53.250;7.456;2023-01-16T08:41:12;9.72;60.59
22917;DHT22;11624;53.250;7.456;2023-01-16T08:43:54;9.65;60.83
22917;DHT22;11624;53.250;7.456;2023-01-16T08:46:39;9.78;60.43
22917;DHT22;11624;53.250;7.456;2023-01-16T08:49:25;9.64;60.86
22917;DHT22;11624;53.250;7.456;2023-01-16T08:52:11;9.61;61.02
22917;DHT22;11624;53.250;7.456;2023-01-16T08:54:41;9.66;61.03
22917;DHT22;11624;53.250;7.456;2023-01-16T08:57:09;9.67;60.98
22917;DHT22;11624;53.250;7.456;2023-01-16T08:59:37;9.90;60.28
22917;DHT22;11624;53.250;7.456;2023-01-16T09:02:07;9.88;60.25
22917;DHT22;11624;53.250;7.456;2023-01-16T09:04:37;9.78;60.53
22917;DHT22;11624;53.250;7.456;2023-01-16T09:07:05;9.79;60.61
22917;DHT22;11624;53.250;7.456;2023-01-16T09:09:33;9.90;60.29
22917;DHT22;11624;53.250;7.456;2023-01-16T09:12:03;9.94;60.08
22917;DHT22;11624;53.250;7.456;2023-01-16T09:14:48;10.09;59.86
22917;DHT22;11624;53.250;7.456;2023-01-16T09:17:16;10.06;59.87
22917;DHT22;11624;53.250;7.456;2023-01-16T09:19:44;10.13;59.54
22917;DHT22;11624;53.250;7.456;2023-01-16T09:22:12;10.18;59.09
22917;DHT22;11624;53.250;7.456;2023-01-16T09:24:40;10.14;59.48
22917;DHT22;11624;53.250;7.456;2023-01-16T09:27:10;10.01;59.58
22917;DHT22;11624;53.250;7.456;2023-01-16T09:29:40;10.07;59.54
22917;DHT22;11624;53.250;7.456;2023-01-16T09:32:08;9.89;60.02
22917;DHT22;11624;53.250;7.456;2023-01-16T09:34:38;9.95;60.08
22917;DHT22;11624;53.250;7.456;2023-01-16T09:37:08;10.00;59.80
22917;DHT22;11624;53.250;7.456;2023-01-16T09:39:36;9.97;59.90
22917;DHT22;11624;53.250;7.456;2023-01-16T09:42:29;9.86;59.64
22917;DHT22;11624;53.250;7.456;2023-01-16T09:45:19;10.03;59.47
22917;DHT22;11624;53.250;7.456;2023-01-16T09:47:50;10.13;58.98
22917;DHT22;11624;53.250;7.456;2023-01-16T09:50:26;10.29;58.22
22917;DHT22;11624;53.250;7.456;2023-01-16T09:52:57;10.50;58.17
22917;DHT22;11624;53.250;7.456;2023-01-16T09:55:45;10.63;57.89
22917;DHT22;11624;53.250;7.456;2023-01-16T09:58:36;10.62;57.61
22917;DHT22;11624;53.250;7.456;2023-01-16T10:01:09;10.65;57.53
22917;DHT22;11624;53.250;7.456;2023-01-16T10:03:39;10.69;57.55
22917;DHT22;11624;53.250;7.456;2023-01-16T10:06:16;10.68;57.15
22917;DHT22;11624;53.250;7.456;2023-01-16T10:08:57;10.75;57.16
22917;DHT22;11624;53.250;7.456;2023-01-16T10:11:36;10.57;57.41
22917;DHT22;11624;53.250;7.456;2023-01-16T10:14:16;10.60;56.84
22917;DHT22;11624;53.250;7.456;2023-01-16T10:16:56;10.70;56.82
22917;DHT22;11624;53.250;7.456;2023-01-16T10:19:37;10.75;56.71
22917;DHT22;11624;53.250;7.456;2023-01-16T10:22:17;10.78;56.42
22917;DHT22;11624;53.250;7.456;2023-01-16T10:24:55;10.80;56.52
22917;DHT22;11624;53.250;7.456;2023-01-16T10:27:33;10.73;56.52
22917;DHT22;11624;53.250;7.456;2023-01-16T10:30:10;10.68;56.60
22917;DHT22;11624;53.250;7.456;2023-01-16T10:32:44;10.62;56.84
22917;DHT22;11624;53.250;7.456;2023-01-16T10:35:18;10.74;56.81
22917;DHT22;11624;53.250;7.456;2023-01-16T10:37:49;10.84;56.43
22917;DHT22;11624;53.250;7.456;2023-01-16T10:40:20;10.81;56.16
22917;DHT22;11624;53.250;7.456;2023-01-16T10:42:57;10.72;56.71
22917;DHT22;11624;53.250;7.456;2023-01-16T10:45:45;10.78;56.58
22917;DHT22;11624;53.250;7.456;2023-01-16T10:48:45;10.90;56.48
22917;DHT22;11624;53.250;7.456;2023-01-16T10:51:30;10.89;56.54
22917;DHT22;11624;53.250;7.456;2023-01-16T10:53:58;10.94;56.61
22917;DHT22;11624;53.250;7.456;2023-01-16T10:56:27;10.64;57.28
22917;DHT22;11624;53.250;7.456;2023-01-16T10:58:55;10.64;57.37
22917;DHT22;11624;53.250;7.456;2023-01-16T11:01:25;10.73;57.26
22917;DHT22;11624;53.250;7.456;2023-01-16T11:03:57;10.77;57.32
22917;DHT22;11624;53.250;7.456;2023-01-16T11:06:27;10.87;57.05
22917;DHT22;11624;53.250;7.456;2023-01-16T11:09:01;10.72;57.09
22917;DHT22;11624;53.250;7.456;2023-01-16T11:11:30;10.69;57.45
22917;DHT22;11624;53.250;7.456;2023-01-16T11:14:21;10.49;58.18
22917;DHT22;11624;53.250;7.456;2023-01-16T11:17:21;10.40;58.62
22917;DHT22;11624;53.250;7.456;2023-01-16T11:20:08;10.29;59.12
22917;DHT22;11624;53.250;7.456;2023-01-16T11:22:39;10.09;59.73
22917;DHT22;11624;53.250;7.456;2023-01-16T11:25:14;10.12;59.86
22917;DHT22;11624;53.250;7.456;2023-01-16T11:27:45;10.10;59.83
22917;DHT22;11624;53.250;7.456;2023-01-16T11:30:18;10.03;60.33
22917;DHT22;11624;53.250;7.456;2023-01-16T11:32:49;9.98;60.41
22917;DHT22;11624;53.250;7.456;2023-01-16T11:35:25;10.12;59.91
22917;DHT22;11624;53.250;7.456;2023-01-16T11:37:57;10.15;59.93
22917;DHT22;11624;53.250;7.456;2023-01-16T11:40:33;9.78;60.97
22917;DHT22;11624;53.250;7.456;2023-01-16T11:43:11;9.88;60.79
22917;DHT22;11624;53.250;7.456;2023-01-16T11:45:57;9.96;60.79
22917;DHT22;11624;53.250;7.456;2023-01-16T11:48:38;9.71;61.47
22917;DHT22;11624;53.250;7.456;2023-01-16T11:51:12;9.91;60.93
22917;DHT22;11624;53.250;7.456;2023-01-16T11:53:43;9.81;61.39
22917;DHT22;11624;53.250;7.456;2023-01-16T11:56:26;9.89;61.36
22917;DHT22;11624;53.250;7.456;2023-01-16T11:59:05;9.86;61.41
22917;DHT22;11624;53.250;7.456;2023-01-16T12:01:43;10.06;60.90
22917;DHT22;11624;53.250;7.456;2023-01-16T12:04:35;10.04;61.18
22917;DHT22;11624;53.250;7.456;2023-01-16T12:07:11;9.96;61.34
22917;DHT22;11624;53.250;7.456;2023-01-16T12:09:52;9.91;61.57
22917;DHT22;11624;53.250;7.456;2023-01-16T12:12:29;10.00;61.37
22917;DHT22;11624;53.250;7.456;2023-01-16T12:15:22;9.89;61.93
22917;DHT22;11624;53.250;7.456;2023-01-16T12:17:59;9.93;61.77
22917;DHT22;11624;53.250;7.456;2023-01-16T12:20:45;9.89;61.80
22917;DHT22;11624;53.250;7.456;2023-01-16T12:23:32;9.98;61.71
22917;DHT22;11624;53.250;7.456;2023-01-16T12:26:11;10.08;61.53
22917;DHT22;11624;53.250;7.456;2023-01-16T12:28:51;9.84;62.34
22917;DHT22;11624;53.250;7.456;2023-01-16T12:31:40;9.94;62.33
22917;DHT22;11624;53.250;7.456;2023-01-16T12:34:32;9.71;62.65
22917;DHT22;11624;53.250;7.456;2023-01-16T12:37:14;9.86;62.36
22917;DHT22;11624;53.250;7.456;2023-01-16T12:39:48;10.06;61.89
22917;DHT22;11624;53.250;7.456;2023-01-16T12:42:28;9.67;62.73
22917;DHT22;11624;53.250;7.456;2023-01-16T12:45:26;9.70;62.73
22917;DHT22;11624;53.250;7.456;2023-01-16T12:48:07;9.74;62.63
22917;DHT22;11624;53.250;7.456;2023-01-16T12:50:54;9.84;62.18
22917;DHT22;11624;53.250;7.456;2023-01-16T12:53:53;9.92;62.38
22917;DHT22;11624;53.250;7.456;2023-01-16T12:56:31;9.79;62.57
22917;DHT22;11624;53.250;7.456;2023-01-16T12:59:02;9.74;62.73
22917;DHT22;11624;53.250;7.456;2023-01-16T13:01:36;9.76;62.57
22917;DHT22;11624;53.250;7.456;2023-01-16T13:04:11;9.68;63.06
22917;DHT22;11624;53.250;7.456;2023-01-16T13:06:45;9.72;63.15
22917;DHT22;11624;53.250;7.456;2023-01-16T13:09:20;9.90;62.48
22917;DHT22;11624;53.250;7.456;2023-01-16T13:11:57;9.94;62.14
22917;DHT22;11624;53.250;7.456;2023-01-16T13:14:47;10.19;61.99
22917;DHT22;11624;53.250;7.456;2023-01-16T13:17:21;10.06;62.24
22917;DHT22;11624;53.250;7.456;2023-01-16T13:19:59;10.07;62.37
22917;DHT22;11624;53.250;7.456;2023-01-16T13:22:33;10.01;62.12
22917;DHT22;11624;53.250;7.456;2023-01-16T13:25:06;10.00;62.53
22917;DHT22;11624;53.250;7.456;2023-01-16T13:27:39;10.13;62.34
22917;DHT22;11624;53.250;7.456;2023-01-16T13:30:12;10.06;62.32
22917;DHT22;11624;53.250;7.456;2023-01-16T13:32:44;10.12;62.05
22917;DHT22;11624;53.250;7.456;2023-01-16T13:35:19;10.15;62.14
22917;DHT22;11624;53.250;7.456;2023-01-16T13:38:15;9.91;63.05
22917;DHT22;11624;53.250;7.456;2023-01-16T13:43:56;10.09;62.81
22917;DHT22;11624;53.250;7.456;2023-01-16T13:46:52;9.93;63.24
22917;DHT22;11624;53.250;7.456;2023-01-16T13:49:21;10.21;62.86
22917;DHT22;11624;53.250;7.456;2023-01-16T13:51:52;10.07;63.15
22917;DHT22;11624;53.250;7.456;2023-01-16T13:54:23;10.06;63.08
22917;DHT22;11624;53.250;7.456;2023-01-16T13:57:02;10.16;62.69
22917;DHT22;11624;53.250;7.456;2023-01-16T13:59:43;9.99;63.21
22917;DHT22;11624;53.250;7.456;2023-01-16T14:02:28;9.98;63.23
22917;DHT22;11624;53.250;7.456;2023-01-16T14:05:42;9.94;63.28
22917;DHT22;11624;53.250;7.456;2023-01-16T14:11:40;10.18;62.92
22917;DHT22;11624;53.250;7.456;2023-01-16T14:14:34;10.13;62.84
22917;DHT22;11624;53.250;7.456;2023-01-16T14:20:36;10.23;62.79
22917;DHT22;11624;53.250;7.456;2023-01-16T14:23:17;10.14;62.85
22917;DHT22;11624;53.250;7.456;2023-01-16T14:26:05;10.11;62.95
22917;DHT22;11624;53.250;7.456;2023-01-16T14:28:34;10.24;62.70
22917;DHT22;11624;53.250;7.456;2023-01-16T14:31:19;10.29;62.09
22917;DHT22;11624;53.250;7.456;2023-01-16T14:33:48;10.16;63.02
22917;DHT22;11624;53.250;7.456;2023-01-16T14:36:24;10.19;62.84
22917;DHT22;11624;53.250;7.456;2023-01-16T14:38:53;10.34;62.66
22917;DHT22;11624;53.250;7.456;2023-01-16T14:41:26;10.46;62.00
22917;DHT22;11624;53.250;7.456;2023-01-16T14:44:18;10.52;61.82
22917;DHT22;11624;53.250;7.456;2023-01-16T14:47:26;10.66;61.49
22917;DHT22;11624;53.250;7.456;2023-01-16T14:50:13;10.50;61.44
22917;DHT22;11624;53.250;7.456;2023-01-16T14:53:20;10.39;61.88
22917;DHT22;11624;53.250;7.456;2023-01-16T14:56:21;10.36;61.94
22917;DHT22;11624;53.250;7.456;2023-01-16T14:58:55;10.09;62.45
22917;DHT22;11624;53.250;7.456;2023-01-16T15:01:27;10.07;62.82
22917;DHT22;11624;53.250;7.456;2023-01-16T15:04:16;10.21;62.46
22917;DHT22;11624;53.250;7.456;2023-01-16T15:06:50;10.20;62.04
22917;DHT22;11624;53.250;7.456;2023-01-16T15:09:20;10.37;61.97
22917;DHT22;11624;53.250;7.456;2023-01-16T15:11:53;10.42;61.41
22917;DHT22;11624;53.250;7.456;2023-01-16T15:14:24;10.45;61.65
22917;DHT22;11624;53.250;7.456;2023-01-16T15:17:03;10.40;61.36
22917;DHT22;11624;53.250;7.456;2023-01-16T15:20:05;10.30;61.70
22917;DHT22;11624;53.250;7.456;2023-01-16T15:22:54;10.18;62.12
22917;DHT22;11624;53.250;7.456;2023-01-16T15:25:33;10.33;61.62
22917;DHT22;11624;53.250;7.456;2023-01-16T15:28:11;10.29;61.38
22917;DHT22;11624;53.250;7.456;2023-01-16T15:30:41;10.37;61.50
22917;DHT22;11624;53.250;7.456;2023-01-16T15:33:22;10.35;61.40
22917;DHT22;11624;53.250;7.456;2023-01-16T15:36:18;10.43;60.99
22917;DHT22;11624;53.250;7.456;2023-01-16T15:38:48;10.52;61.08
22917;DHT22;11624;53.250;7.456;2023-01-16T15:41:18;10.41;61.04
22917;DHT22;11624;53.250;7.456;2023-01-16T15:44:13;10.29;60.55
22917;DHT22;11624;53.250;7.456;2023-01-16T15:50:08;10.27;61.22
22917;DHT22;11624;53.250;7.456;2023-01-16T15:52:41;10.48;60.61
22917;DHT22;11624;53.250;7.456;2023-01-16T15:55:18;10.41;60.28
22917;DHT22;11624;53.250;7.456;2023-01-16T15:57:49;10.50;60.73
22917;DHT22;11624;53.250;7.456;2023-01-16T16:00:33;10.46;60.65
22917;DHT22;11624;53.250;7.456;2023-01-16T16:03:09;10.55;60.40
22917;DHT22;11624;53.250;7.456;2023-01-16T16:05:43;10.63;60.07
22917;DHT22;11624;53.250;7.456;2023-01-16T16:08:14;10.56;60.12
22917;DHT22;11624;53.250;7.456;2023-01-16T16:10:44;10.56;60.23
22917;DHT22;11624;53.250;7.456;2023-01-16T16:13:29;10.54;60.15
22917;DHT22;11624;53.250;7.456;2023-01-16T16:15:59;10.46;60.34
22917;DHT22;11624;53.250;7.456;2023-01-16T16:18:55;10.41;60.09
22917;DHT22;11624;53.250;7.456;2023-01-16T16:21:26;10.39;60.47
22917;DHT22;11624;53.250;7.456;2023-01-16T16:23:58;10.40;60.47
22917;DHT22;11624;53.250;7.456;2023-01-16T16:26:29;10.36;60.77
22917;DHT22;11624;53.250;7.456;2023-01-16T16:29:01;10.36;60.73
22917;DHT22;11624;53.250;7.456;2023-01-16T16:31:32;10.37;60.73